createdAt,value
2023-10-07T00:00:48.495Z,96.20
2023-10-07T00:03:18.990Z,96.61
2023-10-07T00:05:48.198Z,96.41
2023-10-07T00:08:20.913Z,96.88
2023-10-07T00:10:51.091Z,97.18
2023-10-07T00:13:21.934Z,97.10
2023-10-07T00:15:53.041Z,97.32
2023-10-07T00:18:20.429Z,96.80
2023-10-07T00:20:55.527Z,96.99
2023-10-07T00:23:23.672Z,97.47
2023-10-07T00:25:52.053Z,96.68
2023-10-07T00:28:19.665Z,96.16
2023-10-07T00:30:47.742Z,96.15
2023-10-07T00:33:15.588Z,96.58
2023-10-07T00:35:43.362Z,96.39
2023-10-07T00:38:15.988Z,95.99
2023-10-07T00:40:59.135Z,96.56
2023-10-07T00:43:27.908Z,96.80
2023-10-07T00:46:00.974Z,96.26
2023-10-07T00:48:46.343Z,96.51
2023-10-07T00:51:14.021Z,96.56
2023-10-07T00:53:46.562Z,96.58
2023-10-07T00:56:17.697Z,96.36
2023-10-07T00:58:48.352Z,96.47
2023-10-07T01:01:15.952Z,96.03
2023-10-07T01:03:56.429Z,96.14
2023-10-07T01:06:32.149Z,95.89
2023-10-07T01:09:09.235Z,95.96
2023-10-07T01:11:40.943Z,96.23
2023-10-07T01:14:11.687Z,96.30
2023-10-07T01:16:43.113Z,95.89
2023-10-07T01:19:18.315Z,96.29
2023-10-07T01:22:11.553Z,96.02
2023-10-07T01:24:38.546Z,95.84
2023-10-07T01:27:19.011Z,96.49
2023-10-07T01:29:46.439Z,96.40
2023-10-07T01:32:16.797Z,96.58
2023-10-07T01:34:53.376Z,96.49
2023-10-07T01:37:22.990Z,96.27
2023-10-07T01:39:50.587Z,96.46
2023-10-07T01:42:43.095Z,97.29
2023-10-07T01:45:21.818Z,96.98
2023-10-07T01:47:56.587Z,97.07
2023-10-07T01:50:25.086Z,97.36
2023-10-07T01:52:56.446Z,96.76
2023-10-07T01:55:29.388Z,96.82
2023-10-07T01:57:56.381Z,96.45
2023-10-07T02:00:55.286Z,96.89
2023-10-07T02:03:24.849Z,96.41
2023-10-07T02:05:52.215Z,96.25
2023-10-07T02:08:24.134Z,96.96
2023-10-07T02:10:59.235Z,96.47
2023-10-07T02:13:30.963Z,97.04
2023-10-07T02:15:57.867Z,97.04
2023-10-07T02:18:28.562Z,97.49
2023-10-07T02:21:14.848Z,96.92
2023-10-07T02:23:42.499Z,96.99
2023-10-07T02:26:21.906Z,96.60
2023-10-07T02:28:53.595Z,97.29
2023-10-07T02:31:22.101Z,97.10
2023-10-07T02:33:54.360Z,97.19
2023-10-07T02:36:31.409Z,97.99
2023-10-07T02:39:20.048Z,97.95
2023-10-07T02:41:49.914Z,97.92
2023-10-07T02:44:27.361Z,97.50
2023-10-07T02:46:54.934Z,97.79
2023-10-07T02:49:22.324Z,97.89
2023-10-07T02:51:59.238Z,97.87
2023-10-07T02:54:33.777Z,97.84
2023-10-07T02:57:11.306Z,97.69
2023-10-07T02:59:51.631Z,97.68
2023-10-07T03:02:18.627Z,97.70
2023-10-07T03:05:15.065Z,98.37
2023-10-07T03:07:43.328Z,98.42
2023-10-07T03:10:19.827Z,98.41
2023-10-07T03:12:58.101Z,98.42
2023-10-07T03:15:37.226Z,98.79
2023-10-07T03:18:05.132Z,99.20
2023-10-07T03:20:32.981Z,98.72
2023-10-07T03:23:15.456Z,99.16
2023-10-07T03:25:55.149Z,98.91
2023-10-07T03:28:26.872Z,99.40
2023-10-07T03:30:53.589Z,100.00
2023-10-07T03:33:24.622Z,100.00
2023-10-07T03:35:57.537Z,100.00
2023-10-07T03:38:27.215Z,100.00
2023-10-07T03:41:00.144Z,100.00
2023-10-07T03:43:28.076Z,100.00
2023-10-07T03:45:55.805Z,100.00
2023-10-07T03:48:26.101Z,100.00
2023-10-07T03:51:06.937Z,100.00
2023-10-07T03:53:34.497Z,100.00
2023-10-07T03:56:02.660Z,100.00
2023-10-07T03:58:29.937Z,100.00
2023-10-07T04:00:56.822Z,100.00
2023-10-07T04:03:25.136Z,100.00
2023-10-07T04:05:52.521Z,100.00
2023-10-07T04:08:19.500Z,100.00
2023-10-07T04:10:48.407Z,100.00
2023-10-07T04:13:25.528Z,100.00
2023-10-07T04:15:55.318Z,100.00
2023-10-07T04:18:35.741Z,100.00
2023-10-07T04:21:03.429Z,100.00
2023-10-07T04:23:30.088Z,100.00
2023-10-07T04:25:57.745Z,100.00
2023-10-07T04:28:28.835Z,100.00
2023-10-07T04:30:55.339Z,100.00
2023-10-07T04:33:34.109Z,100.00
2023-10-07T04:36:05.793Z,100.00
2023-10-07T04:38:53.997Z,100.00
2023-10-07T04:41:24.673Z,100.00
2023-10-07T04:43:56.001Z,100.00
2023-10-07T04:46:25.831Z,100.00
2023-10-07T04:48:56.885Z,100.00
2023-10-07T04:51:33.672Z,100.00
2023-10-07T04:54:01.397Z,100.00
2023-10-07T04:56:33.073Z,100.00
2023-10-07T04:59:10.988Z,100.00
2023-10-07T05:01:43.203Z,100.00
2023-10-07T05:04:16.791Z,100.00
2023-10-07T05:06:44.410Z,100.00
2023-10-07T05:09:11.546Z,100.00
2023-10-07T05:11:42.217Z,100.00
2023-10-07T05:14:09.960Z,100.00
2023-10-07T05:16:40.939Z,100.00
2023-10-07T05:19:10.483Z,100.00
2023-10-07T05:21:40.079Z,100.00
2023-10-07T05:24:11.386Z,100.00
2023-10-07T05:26:41.835Z,100.00
2023-10-07T05:29:13.513Z,100.00
2023-10-07T05:31:40.638Z,100.00
2023-10-07T05:34:08.137Z,100.00
2023-10-07T05:36:34.825Z,100.00
2023-10-07T05:39:01.916Z,100.00
2023-10-07T05:41:29.654Z,100.00
2023-10-07T05:43:56.301Z,100.00
2023-10-07T05:46:22.817Z,100.00
2023-10-07T05:48:49.525Z,100.00
2023-10-07T05:51:17.749Z,100.00
2023-10-07T05:53:50.178Z,100.00
2023-10-07T05:56:16.848Z,100.00
2023-10-07T05:58:46.071Z,100.00
2023-10-07T06:01:13.327Z,100.00
2023-10-07T06:03:40.180Z,100.00
2023-10-07T06:06:07.686Z,100.00
2023-10-07T06:08:34.579Z,100.00
2023-10-07T06:11:01.997Z,100.00
2023-10-07T06:13:29.863Z,100.00
2023-10-07T06:15:58.578Z,100.00
2023-10-07T06:18:25.561Z,100.00
2023-10-07T06:20:52.856Z,100.00
2023-10-07T06:23:20.748Z,100.00
2023-10-07T06:25:51.467Z,100.00
2023-10-07T06:28:31.493Z,100.00
2023-10-07T06:31:12.678Z,100.00
2023-10-07T06:33:40.925Z,100.00
2023-10-07T06:36:13.290Z,100.00
2023-10-07T06:38:46.681Z,100.00
2023-10-07T06:41:13.879Z,100.00
2023-10-07T06:43:45.139Z,100.00
2023-10-07T06:46:14.277Z,100.00
2023-10-07T06:48:41.018Z,100.00
2023-10-07T06:51:12.224Z,100.00
2023-10-07T06:53:41.788Z,100.00
2023-10-07T06:56:08.361Z,100.00
2023-10-07T06:58:36.896Z,100.00
2023-10-07T07:01:23.472Z,100.00
2023-10-07T07:03:50.161Z,100.00
2023-10-07T07:06:23.264Z,100.00
2023-10-07T07:08:51.910Z,100.00
2023-10-07T07:11:18.394Z,100.00
2023-10-07T07:13:45.246Z,100.00
2023-10-07T07:16:14.975Z,100.00
2023-10-07T07:18:42.149Z,100.00
2023-10-07T07:21:32.528Z,100.00
2023-10-07T07:23:59.970Z,100.00
2023-10-07T07:26:26.700Z,100.00
2023-10-07T07:28:57.393Z,100.00
2023-10-07T07:31:34.552Z,100.00
2023-10-07T07:34:08.395Z,100.00
2023-10-07T07:36:43.686Z,100.00
2023-10-07T07:39:11.291Z,100.00
2023-10-07T07:41:56.924Z,100.00
2023-10-07T07:44:34.626Z,100.00
2023-10-07T07:47:04.464Z,100.00
2023-10-07T07:49:33.243Z,100.00
2023-10-07T07:52:02.027Z,100.00
2023-10-07T07:54:30.228Z,100.00
2023-10-07T07:56:57.294Z,100.00
2023-10-07T07:59:24.041Z,100.00
2023-10-07T08:02:12.232Z,100.00
2023-10-07T08:04:45.076Z,100.00
2023-10-07T08:07:23.812Z,100.00
2023-10-07T08:09:53.351Z,100.00
2023-10-07T08:12:29.219Z,100.00
2023-10-07T08:14:59.467Z,100.00
2023-10-07T08:17:28.608Z,100.00
2023-10-07T08:19:57.313Z,100.00
2023-10-07T08:22:24.984Z,100.00
2023-10-07T08:24:53.387Z,100.00
2023-10-07T08:27:38.358Z,100.00
2023-10-07T08:30:10.369Z,100.00
2023-10-07T08:32:38.726Z,100.00
2023-10-07T08:35:15.994Z,100.00
2023-10-07T08:37:49.656Z,100.00
2023-10-07T08:40:28.495Z,100.00
2023-10-07T08:42:57.343Z,100.00
2023-10-07T08:45:26.974Z,100.00
2023-10-07T08:47:55.242Z,100.00
2023-10-07T08:50:25.972Z,100.00
2023-10-07T08:53:07.717Z,100.00
2023-10-07T08:55:34.770Z,100.00
2023-10-07T08:58:05.483Z,100.00
2023-10-07T09:00:34.928Z,100.00
2023-10-07T09:03:15.561Z,100.00
2023-10-07T09:05:44.657Z,100.00
2023-10-07T09:08:12.908Z,100.00
2023-10-07T09:10:41.097Z,100.00
2023-10-07T09:13:13.705Z,100.00
2023-10-07T09:15:43.922Z,100.00
2023-10-07T09:18:11.756Z,100.00
2023-10-07T09:20:47.044Z,100.00
2023-10-07T09:23:21.201Z,100.00
2023-10-07T09:25:51.827Z,100.00
2023-10-07T09:28:22.459Z,100.00
2023-10-07T09:30:49.731Z,100.00
2023-10-07T09:33:22.692Z,100.00
2023-10-07T09:36:11.255Z,100.00
2023-10-07T09:38:43.229Z,100.00
2023-10-07T09:41:25.418Z,100.00
2023-10-07T09:43:59.280Z,100.00
2023-10-07T09:48:59.368Z,100.00
2023-10-07T09:51:29.633Z,100.00
2023-10-07T09:54:17.370Z,100.00
2023-10-07T09:57:20.443Z,100.00
2023-10-07T10:00:24.894Z,100.00
2023-10-07T10:03:05.326Z,100.00
2023-10-07T10:05:58.049Z,100.00
2023-10-07T10:08:45.129Z,100.00
2023-10-07T10:11:21.228Z,100.00
2023-10-07T10:13:51.666Z,100.00
2023-10-07T10:16:22.305Z,100.00
2023-10-07T10:19:13.158Z,100.00
2023-10-07T10:21:39.741Z,100.00
2023-10-07T10:24:06.329Z,100.00
2023-10-07T10:26:34.582Z,100.00
2023-10-07T10:29:05.685Z,100.00
2023-10-07T10:31:33.568Z,100.00
2023-10-07T10:34:07.143Z,100.00
2023-10-07T10:36:44.334Z,100.00
2023-10-07T10:39:37.694Z,100.00
2023-10-07T10:42:16.241Z,100.00
2023-10-07T10:44:48.025Z,100.00
2023-10-07T10:47:17.769Z,100.00
2023-10-07T10:49:45.509Z,100.00
2023-10-07T10:52:17.052Z,100.00
2023-10-07T10:54:45.082Z,100.00
2023-10-07T10:57:15.501Z,100.00
2023-10-07T10:59:49.794Z,100.00
2023-10-07T11:02:24.087Z,100.00
2023-10-07T11:04:52.792Z,100.00
2023-10-07T11:07:20.727Z,100.00
2023-10-07T11:09:52.967Z,100.00
2023-10-07T11:12:20.568Z,100.00
2023-10-07T11:14:50.637Z,100.00
2023-10-07T11:17:17.421Z,100.00
2023-10-07T11:19:45.891Z,100.00
2023-10-07T11:22:19.495Z,100.00
2023-10-07T11:24:47.441Z,100.00
2023-10-07T11:27:15.207Z,100.00
2023-10-07T11:29:41.700Z,100.00
2023-10-07T11:32:09.069Z,100.00
2023-10-07T11:34:41.519Z,100.00
2023-10-07T11:37:14.474Z,100.00
2023-10-07T11:39:46.950Z,100.00
2023-10-07T11:42:15.772Z,100.00
2023-10-07T11:44:43.911Z,100.00
2023-10-07T11:47:12.330Z,100.00
2023-10-07T11:49:39.167Z,100.00
2023-10-07T11:52:06.734Z,100.00
2023-10-07T11:54:38.475Z,100.00
2023-10-07T11:57:06.326Z,100.00
2023-10-07T11:59:35.040Z,100.00
2023-10-07T12:02:02.322Z,100.00
2023-10-07T12:04:29.027Z,100.00
2023-10-07T12:06:55.587Z,100.00
2023-10-07T12:09:22.935Z,100.00
2023-10-07T12:11:51.093Z,100.00
2023-10-07T12:14:21.020Z,100.00
2023-10-07T12:16:47.747Z,100.00
2023-10-07T12:19:18.553Z,100.00
2023-10-07T12:21:51.316Z,100.00
2023-10-07T12:24:17.728Z,100.00
2023-10-07T12:26:48.094Z,100.00
2023-10-07T12:29:15.049Z,100.00
2023-10-07T12:31:41.803Z,99.09
2023-10-07T12:34:11.260Z,97.12
2023-10-07T12:36:39.447Z,97.08
2023-10-07T12:39:12.683Z,96.18
2023-10-07T12:41:39.988Z,94.96
2023-10-07T12:44:10.553Z,92.22
2023-10-07T12:46:42.683Z,92.54
2023-10-07T12:49:15.442Z,92.11
2023-10-07T12:51:47.106Z,90.35
2023-10-07T12:54:14.388Z,89.96
2023-10-07T12:56:47.549Z,89.43
2023-10-07T12:59:22.569Z,88.57
2023-10-07T13:01:57.131Z,88.87
2023-10-07T13:04:26.868Z,88.71
2023-10-07T13:07:01.880Z,86.79
2023-10-07T13:09:32.871Z,87.48
2023-10-07T13:12:00.271Z,87.13
2023-10-07T13:14:29.825Z,84.68
2023-10-07T13:17:00.317Z,85.81
2023-10-07T13:19:27.980Z,84.29
2023-10-07T13:21:56.371Z,84.30
2023-10-07T13:24:23.599Z,85.33
2023-10-07T13:26:50.883Z,85.69
2023-10-07T13:29:17.619Z,85.48
2023-10-07T13:31:45.127Z,85.94
2023-10-07T13:34:12.094Z,86.58
2023-10-07T13:36:40.236Z,87.06
2023-10-07T13:39:16.937Z,88.17
2023-10-07T13:41:48.491Z,87.50
2023-10-07T13:44:20.046Z,87.64
2023-10-07T13:46:46.814Z,87.53
2023-10-07T13:49:17.517Z,87.21
2023-10-07T13:51:46.160Z,87.07
2023-10-07T13:54:23.605Z,86.78
2023-10-07T13:56:59.509Z,87.14
2023-10-07T13:59:26.468Z,86.68
2023-10-07T14:01:53.776Z,86.11
2023-10-07T14:04:20.608Z,86.45
2023-10-07T14:06:48.924Z,86.61
2023-10-07T14:09:24.802Z,86.56
2023-10-07T14:11:52.628Z,85.57
2023-10-07T14:14:19.862Z,84.20
2023-10-07T14:16:47.111Z,84.06
2023-10-07T14:19:15.125Z,82.91
2023-10-07T14:21:41.942Z,81.79
2023-10-07T14:24:08.477Z,80.52
2023-10-07T14:26:35.894Z,80.81
2023-10-07T14:29:07.019Z,80.91
2023-10-07T14:31:35.893Z,81.33
2023-10-07T14:34:09.314Z,80.83
2023-10-07T14:36:36.134Z,80.64
2023-10-07T14:39:03.752Z,80.03
2023-10-07T14:41:31.627Z,78.21
2023-10-07T14:43:58.245Z,77.60
2023-10-07T14:46:26.327Z,77.93
2023-10-07T14:48:53.209Z,78.71
2023-10-07T14:51:19.819Z,78.72
2023-10-07T14:53:46.379Z,78.33
2023-10-07T14:56:19.407Z,78.73
2023-10-07T14:58:48.913Z,79.27
2023-10-07T15:01:16.424Z,79.47
2023-10-07T15:03:44.356Z,79.70
2023-10-07T15:06:17.351Z,79.65
2023-10-07T15:08:44.719Z,78.96
2023-10-07T15:11:23.270Z,78.30
2023-10-07T15:13:51.152Z,78.02
2023-10-07T15:16:18.803Z,78.83
2023-10-07T15:18:47.001Z,78.94
2023-10-07T15:21:15.864Z,79.13
2023-10-07T15:23:42.986Z,79.65
2023-10-07T15:26:10.758Z,79.90
2023-10-07T15:28:37.782Z,80.16
2023-10-07T15:31:04.262Z,79.93
2023-10-07T15:33:31.259Z,79.79
2023-10-07T15:35:58.110Z,79.97
2023-10-07T15:38:24.670Z,80.01
2023-10-07T15:40:51.777Z,80.45
2023-10-07T15:43:18.534Z,80.69
2023-10-07T15:45:49.834Z,81.46
2023-10-07T15:48:23.629Z,81.31
2023-10-07T15:50:50.857Z,82.15
2023-10-07T15:53:17.602Z,82.28
2023-10-07T15:55:44.494Z,82.67
2023-10-07T15:58:12.223Z,83.00
2023-10-07T16:00:39.434Z,83.49
2023-10-07T16:03:09.960Z,84.13
2023-10-07T16:05:37.077Z,84.80
2023-10-07T16:08:07.329Z,85.30
2023-10-07T16:10:39.271Z,86.04
2023-10-07T16:13:07.425Z,86.23
2023-10-07T16:15:33.976Z,85.01
2023-10-07T16:18:01.142Z,83.90
2023-10-07T16:20:29.767Z,83.93
2023-10-07T16:23:06.465Z,83.63
2023-10-07T16:25:33.403Z,83.47
2023-10-07T16:27:59.858Z,83.20
2023-10-07T16:30:26.734Z,83.22
2023-10-07T16:32:53.248Z,84.19
2023-10-07T16:35:19.932Z,83.89
2023-10-07T16:37:46.881Z,84.34
2023-10-07T16:40:17.374Z,84.32
2023-10-07T16:42:44.758Z,84.05
2023-10-07T16:45:13.940Z,85.25
2023-10-07T16:47:41.237Z,84.55
2023-10-07T16:50:10.586Z,84.84
2023-10-07T16:52:38.639Z,84.50
2023-10-07T16:55:08.650Z,85.08
2023-10-07T16:57:36.272Z,85.00
2023-10-07T17:00:05.717Z,85.08
2023-10-07T17:02:33.121Z,85.15
2023-10-07T17:05:00.589Z,85.31
2023-10-07T17:07:27.183Z,85.51
2023-10-07T17:09:54.859Z,85.23
2023-10-07T17:12:24.475Z,85.51
2023-10-07T17:14:51.659Z,85.51
2023-10-07T17:17:18.161Z,85.60
2023-10-07T17:19:44.900Z,85.47
2023-10-07T17:22:12.787Z,84.97
2023-10-07T17:24:43.493Z,85.11
2023-10-07T17:27:10.234Z,85.11
2023-10-07T17:29:37.169Z,85.49
2023-10-07T17:32:07.707Z,85.59
2023-10-07T17:34:34.596Z,85.92
2023-10-07T17:37:02.328Z,85.70
2023-10-07T17:39:30.302Z,85.14
2023-10-07T17:41:57.386Z,85.46
2023-10-07T17:44:24.429Z,85.88
2023-10-07T17:46:50.924Z,85.71
2023-10-07T17:49:17.462Z,86.08
2023-10-07T17:51:44.408Z,85.79
2023-10-07T17:54:16.399Z,86.48
2023-10-07T17:56:44.982Z,86.11
2023-10-07T17:59:11.798Z,86.42
2023-10-07T18:01:38.608Z,86.48
2023-10-07T18:04:05.329Z,86.48
2023-10-07T18:06:31.949Z,86.83
2023-10-07T18:08:58.464Z,86.94
2023-10-07T18:11:24.975Z,87.19
2023-10-07T18:13:52.481Z,87.21
2023-10-07T18:16:19.052Z,87.53
2023-10-07T18:18:45.674Z,87.75
2023-10-07T18:21:12.168Z,88.04
2023-10-07T18:23:39.635Z,87.97
2023-10-07T18:26:06.295Z,87.83
2023-10-07T18:28:33.005Z,88.97
2023-10-07T18:31:02.276Z,88.99
2023-10-07T18:33:30.092Z,89.15
2023-10-07T18:35:57.679Z,88.87
2023-10-07T18:38:24.213Z,89.27
2023-10-07T18:40:50.660Z,89.51
2023-10-07T18:43:17.321Z,90.19
2023-10-07T18:45:43.746Z,90.19
2023-10-07T18:48:10.255Z,90.45
2023-10-07T18:50:39.121Z,90.50
2023-10-07T18:53:06.557Z,90.79
2023-10-07T18:55:33.614Z,90.81
2023-10-07T18:58:00.083Z,90.77
2023-10-07T19:00:26.665Z,92.24
2023-10-07T19:02:53.203Z,91.26
2023-10-07T19:05:19.943Z,91.57
2023-10-07T19:07:46.616Z,92.38
2023-10-07T19:10:14.286Z,92.02
2023-10-07T19:12:41.981Z,92.30
2023-10-07T19:15:09.498Z,91.86
2023-10-07T19:17:36.254Z,92.03
2023-10-07T19:20:03.344Z,92.88
2023-10-07T19:22:29.881Z,92.32
2023-10-07T19:24:56.369Z,92.31
2023-10-07T19:27:23.636Z,92.24
2023-10-07T19:29:50.106Z,92.67
2023-10-07T19:32:20.030Z,93.58
2023-10-07T19:34:46.558Z,93.53
2023-10-07T19:37:14.364Z,94.07
2023-10-07T19:39:43.961Z,93.90
2023-10-07T19:42:11.582Z,94.85
2023-10-07T19:44:38.348Z,94.99
2023-10-07T19:47:05.161Z,95.41
2023-10-07T19:49:31.720Z,95.07
2023-10-07T19:52:01.283Z,94.51
2023-10-07T19:54:27.886Z,94.88
2023-10-07T19:56:54.760Z,94.78
2023-10-07T19:59:22.992Z,95.70
2023-10-07T20:01:50.234Z,95.65
2023-10-07T20:04:17.334Z,96.13
2023-10-07T20:06:44.360Z,96.00
2023-10-07T20:09:11.297Z,95.72
2023-10-07T20:11:38.453Z,95.39
2023-10-07T20:14:05.033Z,95.08
2023-10-07T20:16:31.534Z,95.03
2023-10-07T20:18:58.306Z,95.43
2023-10-07T20:21:25.595Z,95.77
2023-10-07T20:23:52.173Z,94.90
2023-10-07T20:26:20.434Z,94.48
2023-10-07T20:28:47.061Z,94.51
2023-10-07T20:31:18.320Z,94.41
2023-10-07T20:33:45.731Z,94.82
2023-10-07T20:36:13.827Z,95.07
2023-10-07T20:38:41.387Z,94.58
2023-10-07T20:41:07.998Z,95.22
2023-10-07T20:43:34.441Z,95.33
2023-10-07T20:46:03.284Z,95.04
2023-10-07T20:48:31.072Z,95.24
2023-10-07T20:51:08.118Z,94.91
2023-10-07T20:53:36.118Z,95.68
2023-10-07T20:56:02.847Z,96.11
2023-10-07T20:58:30.036Z,96.24
2023-10-07T21:00:56.986Z,96.00
2023-10-07T21:03:24.306Z,96.28
2023-10-07T21:05:51.477Z,96.22
2023-10-07T21:08:17.944Z,96.33
2023-10-07T21:10:45.314Z,96.72
2023-10-07T21:13:13.344Z,96.51
2023-10-07T21:15:42.172Z,97.24
2023-10-07T21:18:08.811Z,97.39
2023-10-07T21:20:42.871Z,97.96
2023-10-07T21:23:11.738Z,98.20
2023-10-07T21:25:41.310Z,97.68
2023-10-07T21:28:08.794Z,98.42
2023-10-07T21:30:39.900Z,99.29
2023-10-07T21:33:11.097Z,99.75
2023-10-07T21:35:40.831Z,100.00
2023-10-07T21:38:09.056Z,100.00
2023-10-07T21:40:39.400Z,100.00
2023-10-07T21:43:08.242Z,100.00
2023-10-07T21:45:38.797Z,100.00
2023-10-07T21:48:11.089Z,100.00
2023-10-07T21:50:38.766Z,100.00
2023-10-07T21:53:05.656Z,100.00
2023-10-07T21:55:34.010Z,100.00
2023-10-07T21:58:01.866Z,100.00
2023-10-07T22:00:28.645Z,100.00
2023-10-07T22:02:56.819Z,99.84
2023-10-07T22:05:30.486Z,99.97
2023-10-07T22:08:02.834Z,100.00
2023-10-07T22:10:34.627Z,100.00
2023-10-07T22:13:09.992Z,100.00
2023-10-07T22:15:38.141Z,100.00
2023-10-07T22:18:05.129Z,100.00
2023-10-07T22:20:31.852Z,100.00
2023-10-07T22:22:58.358Z,100.00
2023-10-07T22:25:29.501Z,100.00
2023-10-07T22:27:59.642Z,100.00
2023-10-07T22:30:26.643Z,100.00
2023-10-07T22:33:00.081Z,100.00
2023-10-07T22:35:41.628Z,100.00
2023-10-07T22:38:14.573Z,100.00
2023-10-07T22:40:42.078Z,100.00
2023-10-07T22:43:12.441Z,100.00
2023-10-07T22:45:46.267Z,100.00
2023-10-07T22:48:21.362Z,100.00
2023-10-07T22:51:24.152Z,100.00
2023-10-07T22:54:02.408Z,100.00
2023-10-07T22:56:33.415Z,100.00
2023-10-07T22:59:06.119Z,100.00
2023-10-07T23:01:44.316Z,100.00
2023-10-07T23:04:15.349Z,100.00
2023-10-07T23:06:57.738Z,100.00
2023-10-07T23:09:30.016Z,100.00
2023-10-07T23:11:56.622Z,100.00
2023-10-07T23:14:26.866Z,100.00
2023-10-07T23:16:54.697Z,100.00
2023-10-07T23:19:22.853Z,100.00
2023-10-07T23:21:55.628Z,100.00
2023-10-07T23:24:50.707Z,100.00
2023-10-07T23:27:22.560Z,100.00
2023-10-07T23:29:50.596Z,100.00
2023-10-07T23:32:37.850Z,100.00
2023-10-07T23:35:37.413Z,100.00
2023-10-07T23:38:09.667Z,100.00
2023-10-07T23:40:37.337Z,100.00
2023-10-07T23:43:05.668Z,100.00
2023-10-07T23:45:40.471Z,100.00
2023-10-07T23:48:13.021Z,100.00
2023-10-07T23:50:43.088Z,100.00
2023-10-07T23:53:22.673Z,100.00
2023-10-07T23:55:50.532Z,100.00
2023-10-07T23:58:20.057Z,100.00
